sensor_id;sensor_type;location;lat;lon;timestamp;P1;durP1;ratioP1;P2;durP2;ratioP2
12151;SDS011;6139;51.274;7.128;2023-07-28T00:00:04;6.93;;;6.25;;
12151;SDS011;6139;51.274;7.128;2023-07-28T00:01:10;6.47;;;5.97;;
12151;SDS011;6139;51.274;7.128;2023-07-28T00:02:12;6.70;;;6.15;;
12151;SDS011;6139;51.274;7.128;2023-07-28T00:03:13;6.30;;;5.80;;
12151;SDS011;6139;51.274;7.128;2023-07-28T00:04:15;7.18;;;6.50;;
12151;SDS011;6139;51.274;7.128;2023-07-28T00:05:16;7.38;;;6.72;;
12151;SDS011;6139;51.274;7.128;2023-07-28T00:06:18;7.00;;;5.90;;
12151;SDS011;6139;51.274;7.128;2023-07-28T00:07:19;7.00;;;6.40;;
12151;SDS011;6139;51.274;7.128;2023-07-28T00:08:21;7.22;;;6.50;;
12151;SDS011;6139;51.274;7.128;2023-07-28T00:09:22;7.13;;;6.43;;
12151;SDS011;6139;51.274;7.128;2023-07-28T00:10:24;7.70;;;6.45;;
12151;SDS011;6139;51.274;7.128;2023-07-28T00:11:25;7.50;;;6.43;;
12151;SDS011;6139;51.274;7.128;2023-07-28T00:12:27;7.43;;;6.65;;
12151;SDS011;6139;51.274;7.128;2023-07-28T00:13:28;6.88;;;6.10;;
12151;SDS011;6139;51.274;7.128;2023-07-28T00:14:30;7.15;;;6.45;;
12151;SDS011;6139;51.274;7.128;2023-07-28T00:15:32;6.90;;;6.30;;
12151;SDS011;6139;51.274;7.128;2023-07-28T00:16:34;7.82;;;7.13;;
12151;SDS011;6139;51.274;7.128;2023-07-28T00:17:35;6.68;;;6.05;;
12151;SDS011;6139;51.274;7.128;2023-07-28T00:18:37;8.45;;;6.40;;
12151;SDS011;6139;51.274;7.128;2023-07-28T00:19:38;6.80;;;6.22;;
12151;SDS011;6139;51.274;7.128;2023-07-28T00:20:40;7.85;;;6.30;;
12151;SDS011;6139;51.274;7.128;2023-07-28T00:21:41;6.53;;;5.93;;
12151;SDS011;6139;51.274;7.128;2023-07-28T00:22:42;6.53;;;5.93;;
12151;SDS011;6139;51.274;7.128;2023-07-28T00:23:43;6.95;;;6.30;;
12151;SDS011;6139;51.274;7.128;2023-07-28T00:24:45;6.57;;;5.97;;
12151;SDS011;6139;51.274;7.128;2023-07-28T00:25:46;6.78;;;5.95;;
12151;SDS011;6139;51.274;7.128;2023-07-28T00:26:47;6.32;;;5.82;;
12151;SDS011;6139;51.274;7.128;2023-07-28T00:27:49;6.05;;;5.45;;
12151;SDS011;6139;51.274;7.128;2023-07-28T00:28:50;7.00;;;5.82;;
12151;SDS011;6139;51.274;7.128;2023-07-28T00:29:52;6.82;;;5.32;;
12151;SDS011;6139;51.274;7.128;2023-07-28T00:30:54;5.88;;;5.38;;
12151;SDS011;6139;51.274;7.128;2023-07-28T00:31:56;5.50;;;5.00;;
12151;SDS011;6139;51.274;7.128;2023-07-28T00:32:57;6.10;;;5.50;;
12151;SDS011;6139;51.274;7.128;2023-07-28T00:33:59;6.03;;;5.43;;
12151;SDS011;6139;51.274;7.128;2023-07-28T00:35:01;5.72;;;5.20;;
12151;SDS011;6139;51.274;7.128;2023-07-28T00:36:04;5.68;;;5.18;;
12151;SDS011;6139;51.274;7.128;2023-07-28T00:37:06;5.40;;;4.93;;
12151;SDS011;6139;51.274;7.128;2023-07-28T00:38:09;5.35;;;4.95;;
12151;SDS011;6139;51.274;7.128;2023-07-28T00:39:10;5.10;;;4.60;;
12151;SDS011;6139;51.274;7.128;2023-07-28T00:40:12;5.45;;;5.00;;
12151;SDS011;6139;51.274;7.128;2023-07-28T00:41:13;4.75;;;4.35;;
12151;SDS011;6139;51.274;7.128;2023-07-28T00:42:15;4.80;;;4.50;;
12151;SDS011;6139;51.274;7.128;2023-07-28T00:43:16;7.00;;;4.72;;
12151;SDS011;6139;51.274;7.128;2023-07-28T00:44:18;4.95;;;4.45;;
12151;SDS011;6139;51.274;7.128;2023-07-28T00:45:19;5.65;;;5.05;;
12151;SDS011;6139;51.274;7.128;2023-07-28T00:46:23;5.45;;;4.95;;
12151;SDS011;6139;51.274;7.128;2023-07-28T00:47:25;4.80;;;4.40;;
12151;SDS011;6139;51.274;7.128;2023-07-28T00:48:27;5.90;;;5.03;;
12151;SDS011;6139;51.274;7.128;2023-07-28T00:49:28;5.40;;;4.90;;
12151;SDS011;6139;51.274;7.128;2023-07-28T00:50:31;5.25;;;4.85;;
12151;SDS011;6139;51.274;7.128;2023-07-28T00:51:32;5.95;;;5.45;;
12151;SDS011;6139;51.274;7.128;2023-07-28T00:52:36;5.93;;;5.43;;
12151;SDS011;6139;51.274;7.128;2023-07-28T00:53:38;5.90;;;5.40;;
12151;SDS011;6139;51.274;7.128;2023-07-28T00:54:40;7.10;;;6.03;;
12151;SDS011;6139;51.274;7.128;2023-07-28T00:55:41;7.95;;;5.88;;
12151;SDS011;6139;51.274;7.128;2023-07-28T00:56:43;6.70;;;6.10;;
12151;SDS011;6139;51.274;7.128;2023-07-28T00:57:45;6.60;;;5.90;;
12151;SDS011;6139;51.274;7.128;2023-07-28T00:58:46;6.35;;;5.40;;
12151;SDS011;6139;51.274;7.128;2023-07-28T00:59:48;6.07;;;5.50;;
12151;SDS011;6139;51.274;7.128;2023-07-28T01:00:50;8.48;;;5.32;;
12151;SDS011;6139;51.274;7.128;2023-07-28T01:01:52;5.70;;;5.20;;
12151;SDS011;6139;51.274;7.128;2023-07-28T01:02:54;5.82;;;5.32;;
12151;SDS011;6139;51.274;7.128;2023-07-28T01:03:56;5.72;;;5.25;;
12151;SDS011;6139;51.274;7.128;2023-07-28T01:04:58;6.07;;;5.47;;
12151;SDS011;6139;51.274;7.128;2023-07-28T01:06:02;5.15;;;4.65;;
12151;SDS011;6139;51.274;7.128;2023-07-28T01:07:15;5.07;;;4.68;;
12151;SDS011;6139;51.274;7.128;2023-07-28T01:08:23;7.28;;;5.22;;
12151;SDS011;6139;51.274;7.128;2023-07-28T01:09:36;5.85;;;4.90;;
12151;SDS011;6139;51.274;7.128;2023-07-28T01:10:42;5.20;;;4.70;;
12151;SDS011;6139;51.274;7.128;2023-07-28T01:11:54;5.20;;;4.70;;
12151;SDS011;6139;51.274;7.128;2023-07-28T01:12:55;4.50;;;4.10;;
12151;SDS011;6139;51.274;7.128;2023-07-28T01:13:57;4.65;;;4.25;;
12151;SDS011;6139;51.274;7.128;2023-07-28T01:14:58;5.10;;;4.70;;
12151;SDS011;6139;51.274;7.128;2023-07-28T01:16:00;4.65;;;4.25;;
12151;SDS011;6139;51.274;7.128;2023-07-28T01:17:03;4.75;;;4.30;;
12151;SDS011;6139;51.274;7.128;2023-07-28T01:18:06;5.30;;;4.28;;
12151;SDS011;6139;51.274;7.128;2023-07-28T01:19:07;4.25;;;3.95;;
12151;SDS011;6139;51.274;7.128;2023-07-28T01:20:11;4.60;;;4.20;;
12151;SDS011;6139;51.274;7.128;2023-07-28T01:21:14;4.40;;;3.95;;
12151;SDS011;6139;51.274;7.128;2023-07-28T01:22:26;4.60;;;4.20;;
12151;SDS011;6139;51.274;7.128;2023-07-28T01:23:55;4.75;;;4.35;;
12151;SDS011;6139;51.274;7.128;2023-07-28T01:25:09;5.07;;;4.63;;
12151;SDS011;6139;51.274;7.128;2023-07-28T01:26:17;4.65;;;4.30;;
12151;SDS011;6139;51.274;7.128;2023-07-28T01:27:27;4.97;;;4.57;;
12151;SDS011;6139;51.274;7.128;2023-07-28T01:28:29;4.88;;;4.47;;
12151;SDS011;6139;51.274;7.128;2023-07-28T01:29:32;4.40;;;4.00;;
12151;SDS011;6139;51.274;7.128;2023-07-28T01:30:33;5.03;;;4.53;;
12151;SDS011;6139;51.274;7.128;2023-07-28T01:31:36;4.78;;;4.38;;
12151;SDS011;6139;51.274;7.128;2023-07-28T01:32:37;5.55;;;4.65;;
12151;SDS011;6139;51.274;7.128;2023-07-28T01:33:39;4.90;;;4.50;;
12151;SDS011;6139;51.274;7.128;2023-07-28T01:34:40;4.95;;;4.28;;
12151;SDS011;6139;51.274;7.128;2023-07-28T01:35:42;4.97;;;4.53;;
12151;SDS011;6139;51.274;7.128;2023-07-28T01:36:43;5.30;;;4.90;;
12151;SDS011;6139;51.274;7.128;2023-07-28T01:37:45;5.35;;;4.85;;
12151;SDS011;6139;51.274;7.128;2023-07-28T01:38:50;4.80;;;4.30;;
12151;SDS011;6139;51.274;7.128;2023-07-28T01:39:53;5.45;;;5.05;;
12151;SDS011;6139;51.274;7.128;2023-07-28T01:40:54;5.18;;;4.78;;
12151;SDS011;6139;51.274;7.128;2023-07-28T01:41:57;5.28;;;4.78;;
12151;SDS011;6139;51.274;7.128;2023-07-28T01:42:59;6.05;;;5.55;;
12151;SDS011;6139;51.274;7.128;2023-07-28T01:44:00;5.88;;;5.38;;
12151;SDS011;6139;51.274;7.128;2023-07-28T01:45:01;7.65;;;5.00;;
12151;SDS011;6139;51.274;7.128;2023-07-28T01:46:03;5.43;;;5.03;;
12151;SDS011;6139;51.274;7.128;2023-07-28T01:47:04;6.03;;;4.95;;
12151;SDS011;6139;51.274;7.128;2023-07-28T01:48:06;5.53;;;5.03;;
12151;SDS011;6139;51.274;7.128;2023-07-28T01:49:09;5.60;;;4.95;;
12151;SDS011;6139;51.274;7.128;2023-07-28T01:50:11;5.10;;;4.70;;
12151;SDS011;6139;51.274;7.128;2023-07-28T01:51:12;5.18;;;4.50;;
12151;SDS011;6139;51.274;7.128;2023-07-28T01:52:14;5.07;;;4.65;;
12151;SDS011;6139;51.274;7.128;2023-07-28T01:53:15;4.68;;;4.28;;
12151;SDS011;6139;51.274;7.128;2023-07-28T01:54:17;5.22;;;4.70;;
12151;SDS011;6139;51.274;7.128;2023-07-28T01:55:18;4.70;;;4.30;;
12151;SDS011;6139;51.274;7.128;2023-07-28T01:56:20;4.60;;;4.20;;
12151;SDS011;6139;51.274;7.128;2023-07-28T01:57:22;4.85;;;4.45;;
12151;SDS011;6139;51.274;7.128;2023-07-28T01:58:27;4.40;;;4.00;;
12151;SDS011;6139;51.274;7.128;2023-07-28T01:59:28;4.07;;;3.63;;
12151;SDS011;6139;51.274;7.128;2023-07-28T02:00:30;4.43;;;4.10;;
12151;SDS011;6139;51.274;7.128;2023-07-28T02:01:31;4.32;;;3.92;;
12151;SDS011;6139;51.274;7.128;2023-07-28T02:02:33;3.75;;;3.45;;
12151;SDS011;6139;51.274;7.128;2023-07-28T02:03:34;4.53;;;3.83;;
12151;SDS011;6139;51.274;7.128;2023-07-28T02:04:36;5.25;;;3.70;;
12151;SDS011;6139;51.274;7.128;2023-07-28T02:05:37;3.97;;;3.67;;
12151;SDS011;6139;51.274;7.128;2023-07-28T02:06:39;3.28;;;3.08;;
12151;SDS011;6139;51.274;7.128;2023-07-28T02:07:40;3.42;;;3.20;;
12151;SDS011;6139;51.274;7.128;2023-07-28T02:08:41;3.75;;;3.45;;
12151;SDS011;6139;51.274;7.128;2023-07-28T02:09:43;3.50;;;3.20;;
12151;SDS011;6139;51.274;7.128;2023-07-28T02:10:44;3.60;;;3.30;;
12151;SDS011;6139;51.274;7.128;2023-07-28T02:11:46;3.90;;;3.10;;
12151;SDS011;6139;51.274;7.128;2023-07-28T02:12:49;3.55;;;3.25;;
12151;SDS011;6139;51.274;7.128;2023-07-28T02:13:50;3.50;;;3.20;;
12151;SDS011;6139;51.274;7.128;2023-07-28T02:14:52;3.53;;;3.20;;
12151;SDS011;6139;51.274;7.128;2023-07-28T02:15:53;3.30;;;3.05;;
12151;SDS011;6139;51.274;7.128;2023-07-28T02:16:55;3.10;;;2.90;;
12151;SDS011;6139;51.274;7.128;2023-07-28T02:17:56;3.47;;;3.22;;
12151;SDS011;6139;51.274;7.128;2023-07-28T02:18:57;3.38;;;3.08;;
12151;SDS011;6139;51.274;7.128;2023-07-28T02:19:59;8.38;;;3.13;;
12151;SDS011;6139;51.274;7.128;2023-07-28T02:21:01;3.20;;;2.67;;
12151;SDS011;6139;51.274;7.128;2023-07-28T02:22:02;4.15;;;3.30;;
12151;SDS011;6139;51.274;7.128;2023-07-28T02:23:04;3.30;;;3.00;;
12151;SDS011;6139;51.274;7.128;2023-07-28T02:24:05;3.22;;;2.97;;
12151;SDS011;6139;51.274;7.128;2023-07-28T02:25:06;2.92;;;2.72;;
12151;SDS011;6139;51.274;7.128;2023-07-28T02:26:09;2.70;;;2.50;;
12151;SDS011;6139;51.274;7.128;2023-07-28T02:27:10;2.70;;;2.50;;
12151;SDS011;6139;51.274;7.128;2023-07-28T02:28:13;2.40;;;2.20;;
12151;SDS011;6139;51.274;7.128;2023-07-28T02:29:14;2.38;;;2.17;;
12151;SDS011;6139;51.274;7.128;2023-07-28T02:30:16;2.20;;;2.10;;
12151;SDS011;6139;51.274;7.128;2023-07-28T02:31:17;2.28;;;2.08;;
12151;SDS011;6139;51.274;7.128;2023-07-28T02:32:19;2.60;;;2.40;;
12151;SDS011;6139;51.274;7.128;2023-07-28T02:33:20;2.15;;;2.05;;
12151;SDS011;6139;51.274;7.128;2023-07-28T02:34:22;2.60;;;2.40;;
12151;SDS011;6139;51.274;7.128;2023-07-28T02:35:23;2.15;;;2.03;;
12151;SDS011;6139;51.274;7.128;2023-07-28T02:36:25;2.35;;;2.15;;
12151;SDS011;6139;51.274;7.128;2023-07-28T02:37:26;2.17;;;2.08;;
12151;SDS011;6139;51.274;7.128;2023-07-28T02:38:27;2.15;;;2.05;;
12151;SDS011;6139;51.274;7.128;2023-07-28T02:39:29;2.53;;;2.33;;
12151;SDS011;6139;51.274;7.128;2023-07-28T02:40:31;2.08;;;1.98;;
12151;SDS011;6139;51.274;7.128;2023-07-28T02:41:33;2.40;;;2.20;;
12151;SDS011;6139;51.274;7.128;2023-07-28T02:42:34;2.03;;;1.92;;
12151;SDS011;6139;51.274;7.128;2023-07-28T02:43:38;2.40;;;2.20;;
12151;SDS011;6139;51.274;7.128;2023-07-28T02:44:39;2.22;;;2.03;;
12151;SDS011;6139;51.274;7.128;2023-07-28T02:45:41;2.40;;;2.20;;
12151;SDS011;6139;51.274;7.128;2023-07-28T02:46:42;2.15;;;2.03;;
12151;SDS011;6139;51.274;7.128;2023-07-28T02:47:43;2.22;;;1.83;;
12151;SDS011;6139;51.274;7.128;2023-07-28T02:48:45;2.00;;;1.90;;
12151;SDS011;6139;51.274;7.128;2023-07-28T02:49:46;2.33;;;2.13;;
12151;SDS011;6139;51.274;7.128;2023-07-28T02:50:49;2.03;;;1.92;;
12151;SDS011;6139;51.274;7.128;2023-07-28T02:51:51;1.85;;;1.75;;
12151;SDS011;6139;51.274;7.128;2023-07-28T02:52:53;2.03;;;1.88;;
12151;SDS011;6139;51.274;7.128;2023-07-28T02:53:54;1.90;;;1.80;;
12151;SDS011;6139;51.274;7.128;2023-07-28T02:54:55;4.50;;;2.10;;
12151;SDS011;6139;51.274;7.128;2023-07-28T02:55:56;2.00;;;1.85;;
12151;SDS011;6139;51.274;7.128;2023-07-28T02:56:58;2.00;;;1.90;;
12151;SDS011;6139;51.274;7.128;2023-07-28T02:57:59;1.70;;;1.60;;
12151;SDS011;6139;51.274;7.128;2023-07-28T02:59:03;1.92;;;1.83;;
12151;SDS011;6139;51.274;7.128;2023-07-28T03:00:04;1.83;;;1.73;;
12151;SDS011;6139;51.274;7.128;2023-07-28T03:01:10;1.70;;;1.60;;
12151;SDS011;6139;51.274;7.128;2023-07-28T03:02:12;1.92;;;1.80;;
12151;SDS011;6139;51.274;7.128;2023-07-28T03:03:14;2.67;;;1.90;;
12151;SDS011;6139;51.274;7.128;2023-07-28T03:04:16;1.83;;;1.73;;
12151;SDS011;6139;51.274;7.128;2023-07-28T03:05:39;1.55;;;1.45;;
12151;SDS011;6139;51.274;7.128;2023-07-28T03:06:59;1.73;;;1.63;;
12151;SDS011;6139;51.274;7.128;2023-07-28T03:08:01;1.50;;;1.40;;
12151;SDS011;6139;51.274;7.128;2023-07-28T03:09:02;1.60;;;1.50;;
12151;SDS011;6139;51.274;7.128;2023-07-28T03:10:23;1.48;;;1.38;;
12151;SDS011;6139;51.274;7.128;2023-07-28T03:11:24;1.38;;;1.20;;
12151;SDS011;6139;51.274;7.128;2023-07-28T03:12:25;1.48;;;1.38;;
12151;SDS011;6139;51.274;7.128;2023-07-28T03:13:27;1.45;;;1.35;;
12151;SDS011;6139;51.274;7.128;2023-07-28T03:14:30;1.38;;;1.27;;
12151;SDS011;6139;51.274;7.128;2023-07-28T03:15:31;5.07;;;1.30;;
12151;SDS011;6139;51.274;7.128;2023-07-28T03:16:33;1.20;;;1.02;;
12151;SDS011;6139;51.274;7.128;2023-07-28T03:17:34;1.30;;;1.15;;
12151;SDS011;6139;51.274;7.128;2023-07-28T03:18:36;1.38;;;1.27;;
12151;SDS011;6139;51.274;7.128;2023-07-28T03:19:37;1.30;;;1.20;;
12151;SDS011;6139;51.274;7.128;2023-07-28T03:20:39;1.10;;;1.00;;
12151;SDS011;6139;51.274;7.128;2023-07-28T03:21:40;1.20;;;1.13;;
12151;SDS011;6139;51.274;7.128;2023-07-28T03:22:42;1.30;;;1.20;;
12151;SDS011;6139;51.274;7.128;2023-07-28T03:23:43;1.45;;;1.35;;
12151;SDS011;6139;51.274;7.128;2023-07-28T03:24:44;1.30;;;1.20;;
12151;SDS011;6139;51.274;7.128;2023-07-28T03:25:47;1.20;;;1.10;;
12151;SDS011;6139;51.274;7.128;2023-07-28T03:26:48;1.00;;;1.00;;
12151;SDS011;6139;51.274;7.128;2023-07-28T03:27:50;1.30;;;1.20;;
12151;SDS011;6139;51.274;7.128;2023-07-28T03:28:53;1.50;;;1.10;;
12151;SDS011;6139;51.274;7.128;2023-07-28T03:29:56;1.92;;;1.20;;
12151;SDS011;6139;51.274;7.128;2023-07-28T03:30:57;1.40;;;1.30;;
12151;SDS011;6139;51.274;7.128;2023-07-28T03:32:02;1.20;;;1.10;;
12151;SDS011;6139;51.274;7.128;2023-07-28T03:33:04;1.20;;;1.10;;
12151;SDS011;6139;51.274;7.128;2023-07-28T03:34:06;1.33;;;1.23;;
12151;SDS011;6139;51.274;7.128;2023-07-28T03:35:07;1.20;;;1.10;;
12151;SDS011;6139;51.274;7.128;2023-07-28T03:36:13;3.17;;;1.20;;
12151;SDS011;6139;51.274;7.128;2023-07-28T03:37:15;1.13;;;1.10;;
12151;SDS011;6139;51.274;7.128;2023-07-28T03:38:17;1.58;;;1.20;;
12151;SDS011;6139;51.274;7.128;2023-07-28T03:39:19;1.00;;;1.00;;
12151;SDS011;6139;51.274;7.128;2023-07-28T03:40:22;1.20;;;1.10;;
12151;SDS011;6139;51.274;7.128;2023-07-28T03:41:27;1.02;;;1.00;;
12151;SDS011;6139;51.274;7.128;2023-07-28T03:42:28;1.20;;;1.10;;
12151;SDS011;6139;51.274;7.128;2023-07-28T03:43:30;1.30;;;1.20;;
12151;SDS011;6139;51.274;7.128;2023-07-28T03:44:31;1.10;;;1.10;;
12151;SDS011;6139;51.274;7.128;2023-07-28T03:45:34;1.20;;;1.00;;
12151;SDS011;6139;51.274;7.128;2023-07-28T03:46:35;3.13;;;1.38;;
12151;SDS011;6139;51.274;7.128;2023-07-28T03:47:38;1.83;;;1.20;;
12151;SDS011;6139;51.274;7.128;2023-07-28T03:48:40;1.00;;;1.00;;
12151;SDS011;6139;51.274;7.128;2023-07-28T03:49:42;1.27;;;1.17;;
12151;SDS011;6139;51.274;7.128;2023-07-28T03:50:43;17.35;;;2.17;;
12151;SDS011;6139;51.274;7.128;2023-07-28T03:51:45;1.58;;;1.20;;
12151;SDS011;6139;51.274;7.128;2023-07-28T03:52:46;1.90;;;1.20;;
12151;SDS011;6139;51.274;7.128;2023-07-28T03:53:48;2.78;;;1.20;;
12151;SDS011;6139;51.274;7.128;2023-07-28T03:54:49;1.25;;;1.10;;
12151;SDS011;6139;51.274;7.128;2023-07-28T03:55:51;1.25;;;1.17;;
12151;SDS011;6139;51.274;7.128;2023-07-28T03:56:52;1.60;;;1.20;;
12151;SDS011;6139;51.274;7.128;2023-07-28T03:57:54;1.50;;;1.10;;
12151;SDS011;6139;51.274;7.128;2023-07-28T03:58:55;1.50;;;1.10;;
12151;SDS011;6139;51.274;7.128;2023-07-28T03:59:57;1.10;;;1.00;;
12151;SDS011;6139;51.274;7.128;2023-07-28T04:01:00;1.00;;;1.00;;
12151;SDS011;6139;51.274;7.128;2023-07-28T04:02:02;1.30;;;1.20;;
12151;SDS011;6139;51.274;7.128;2023-07-28T04:03:03;1.50;;;1.40;;
12151;SDS011;6139;51.274;7.128;2023-07-28T04:04:05;1.45;;;1.35;;
12151;SDS011;6139;51.274;7.128;2023-07-28T04:05:06;2.78;;;1.48;;
12151;SDS011;6139;51.274;7.128;2023-07-28T04:06:10;1.77;;;1.40;;
12151;SDS011;6139;51.274;7.128;2023-07-28T04:07:12;2.05;;;1.38;;
12151;SDS011;6139;51.274;7.128;2023-07-28T04:08:13;2.00;;;1.30;;
12151;SDS011;6139;51.274;7.128;2023-07-28T04:09:14;1.60;;;1.50;;
12151;SDS011;6139;51.274;7.128;2023-07-28T04:10:16;1.23;;;1.15;;
12151;SDS011;6139;51.274;7.128;2023-07-28T04:11:18;1.60;;;1.50;;
12151;SDS011;6139;51.274;7.128;2023-07-28T04:12:19;1.50;;;1.40;;
12151;SDS011;6139;51.274;7.128;2023-07-28T04:13:21;1.42;;;1.33;;
12151;SDS011;6139;51.274;7.128;2023-07-28T04:14:22;1.83;;;1.30;;
12151;SDS011;6139;51.274;7.128;2023-07-28T04:15:24;1.40;;;1.30;;
12151;SDS011;6139;51.274;7.128;2023-07-28T04:16:26;1.40;;;1.30;;
12151;SDS011;6139;51.274;7.128;2023-07-28T04:17:28;1.40;;;1.30;;
12151;SDS011;6139;51.274;7.128;2023-07-28T04:18:30;2.38;;;1.30;;
12151;SDS011;6139;51.274;7.128;2023-07-28T04:19:32;1.75;;;1.23;;
12151;SDS011;6139;51.274;7.128;2023-07-28T04:20:33;1.85;;;1.33;;
12151;SDS011;6139;51.274;7.128;2023-07-28T04:21:35;1.48;;;1.38;;
12151;SDS011;6139;51.274;7.128;2023-07-28T04:22:39;1.17;;;1.08;;
12151;SDS011;6139;51.274;7.128;2023-07-28T04:23:41;1.50;;;1.40;;
12151;SDS011;6139;51.274;7.128;2023-07-28T04:24:43;1.40;;;1.30;;
12151;SDS011;6139;51.274;7.128;2023-07-28T04:25:45;1.15;;;1.05;;
12151;SDS011;6139;51.274;7.128;2023-07-28T04:26:46;1.10;;;1.00;;
12151;SDS011;6139;51.274;7.128;2023-07-28T04:27:50;1.02;;;0.95;;
12151;SDS011;6139;51.274;7.128;2023-07-28T04:28:51;1.10;;;1.00;;
12151;SDS011;6139;51.274;7.128;2023-07-28T04:29:53;0.90;;;0.90;;
12151;SDS011;6139;51.274;7.128;2023-07-28T04:30:56;1.40;;;1.30;;
12151;SDS011;6139;51.274;7.128;2023-07-28T04:32:18;1.50;;;1.40;;
12151;SDS011;6139;51.274;7.128;2023-07-28T04:33:20;1.90;;;1.10;;
12151;SDS011;6139;51.274;7.128;2023-07-28T04:34:22;1.20;;;1.10;;
12151;SDS011;6139;51.274;7.128;2023-07-28T04:35:43;1.20;;;1.10;;
12151;SDS011;6139;51.274;7.128;2023-07-28T04:36:50;1.58;;;1.48;;
12151;SDS011;6139;51.274;7.128;2023-07-28T04:37:55;2.15;;;1.20;;
12151;SDS011;6139;51.274;7.128;2023-07-28T04:39:16;1.30;;;1.20;;
12151;SDS011;6139;51.274;7.128;2023-07-28T04:40:17;1.50;;;1.40;;
12151;SDS011;6139;51.274;7.128;2023-07-28T04:41:19;1.30;;;1.20;;
12151;SDS011;6139;51.274;7.128;2023-07-28T04:42:26;2.35;;;1.30;;
12151;SDS011;6139;51.274;7.128;2023-07-28T04:43:28;1.85;;;1.20;;
12151;SDS011;6139;51.274;7.128;2023-07-28T04:44:30;1.20;;;1.10;;
12151;SDS011;6139;51.274;7.128;2023-07-28T04:45:36;2.58;;;1.17;;
12151;SDS011;6139;51.274;7.128;2023-07-28T04:46:42;2.20;;;1.10;;
12151;SDS011;6139;51.274;7.128;2023-07-28T04:47:49;1.45;;;1.35;;
12151;SDS011;6139;51.274;7.128;2023-07-28T04:48:50;1.13;;;1.10;;
12151;SDS011;6139;51.274;7.128;2023-07-28T04:50:11;1.30;;;1.20;;
12151;SDS011;6139;51.274;7.128;2023-07-28T04:51:30;1.30;;;1.20;;
12151;SDS011;6139;51.274;7.128;2023-07-28T04:52:51;1.30;;;1.20;;
12151;SDS011;6139;51.274;7.128;2023-07-28T04:54:08;1.20;;;1.10;;
12151;SDS011;6139;51.274;7.128;2023-07-28T04:55:10;1.08;;;1.08;;
12151;SDS011;6139;51.274;7.128;2023-07-28T04:56:11;1.40;;;1.30;;
12151;SDS011;6139;51.274;7.128;2023-07-28T04:57:13;1.90;;;1.10;;
12151;SDS011;6139;51.274;7.128;2023-07-28T04:58:14;1.20;;;1.10;;
12151;SDS011;6139;51.274;7.128;2023-07-28T04:59:21;1.17;;;1.08;;
12151;SDS011;6139;51.274;7.128;2023-07-28T05:00:22;1.20;;;1.10;;
12151;SDS011;6139;51.274;7.128;2023-07-28T05:01:24;1.10;;;1.00;;
12151;SDS011;6139;51.274;7.128;2023-07-28T05:02:27;1.40;;;1.30;;
12151;SDS011;6139;51.274;7.128;2023-07-28T05:03:30;2.15;;;1.30;;
12151;SDS011;6139;51.274;7.128;2023-07-28T05:04:36;1.10;;;1.00;;
12151;SDS011;6139;51.274;7.128;2023-07-28T05:05:38;1.30;;;1.20;;
12151;SDS011;6139;51.274;7.128;2023-07-28T05:06:44;1.27;;;1.17;;
12151;SDS011;6139;51.274;7.128;2023-07-28T05:07:46;1.30;;;1.20;;
12151;SDS011;6139;51.274;7.128;2023-07-28T05:08:49;1.33;;;1.23;;
12151;SDS011;6139;51.274;7.128;2023-07-28T05:09:57;4.65;;;1.25;;
12151;SDS011;6139;51.274;7.128;2023-07-28T05:11:00;1.40;;;1.30;;
12151;SDS011;6139;51.274;7.128;2023-07-28T05:12:05;2.47;;;1.23;;
12151;SDS011;6139;51.274;7.128;2023-07-28T05:13:14;1.60;;;1.33;;
12151;SDS011;6139;51.274;7.128;2023-07-28T05:14:25;1.38;;;1.27;;
12151;SDS011;6139;51.274;7.128;2023-07-28T05:15:26;1.75;;;1.50;;
12151;SDS011;6139;51.274;7.128;2023-07-28T05:16:28;1.90;;;1.45;;
12151;SDS011;6139;51.274;7.128;2023-07-28T05:17:37;1.77;;;1.48;;
12151;SDS011;6139;51.274;7.128;2023-07-28T05:19:08;1.70;;;1.60;;
12151;SDS011;6139;51.274;7.128;2023-07-28T05:20:29;1.85;;;1.50;;
12151;SDS011;6139;51.274;7.128;2023-07-28T05:21:46;1.80;;;1.70;;
12151;SDS011;6139;51.274;7.128;2023-07-28T05:22:48;3.25;;;1.90;;
12151;SDS011;6139;51.274;7.128;2023-07-28T05:23:51;2.30;;;1.95;;
12151;SDS011;6139;51.274;7.128;2023-07-28T05:24:52;2.00;;;1.90;;
12151;SDS011;6139;51.274;7.128;2023-07-28T05:25:54;3.35;;;2.50;;
12151;SDS011;6139;51.274;7.128;2023-07-28T05:26:55;2.65;;;2.45;;
12151;SDS011;6139;51.274;7.128;2023-07-28T05:27:57;2.55;;;2.35;;
12151;SDS011;6139;51.274;7.128;2023-07-28T05:28:59;2.53;;;2.33;;
12151;SDS011;6139;51.274;7.128;2023-07-28T05:30:02;2.90;;;2.70;;
12151;SDS011;6139;51.274;7.128;2023-07-28T05:31:04;4.68;;;2.50;;
12151;SDS011;6139;51.274;7.128;2023-07-28T05:32:06;2.80;;;2.60;;
12151;SDS011;6139;51.274;7.128;2023-07-28T05:33:15;2.90;;;2.70;;
12151;SDS011;6139;51.274;7.128;2023-07-28T05:34:22;9.90;;;3.05;;
12151;SDS011;6139;51.274;7.128;2023-07-28T05:35:23;3.97;;;3.08;;
12151;SDS011;6139;51.274;7.128;2023-07-28T05:36:25;2.95;;;2.75;;
12151;SDS011;6139;51.274;7.128;2023-07-28T05:37:31;3.92;;;2.85;;
12151;SDS011;6139;51.274;7.128;2023-07-28T05:38:33;4.10;;;3.28;;
12151;SDS011;6139;51.274;7.128;2023-07-28T05:39:34;3.50;;;2.92;;
12151;SDS011;6139;51.274;7.128;2023-07-28T05:40:37;5.63;;;3.03;;
12151;SDS011;6139;51.274;7.128;2023-07-28T05:41:37;3.50;;;3.20;;
12151;SDS011;6139;51.274;7.128;2023-07-28T05:42:42;3.83;;;3.50;;
12151;SDS011;6139;51.274;7.128;2023-07-28T05:43:43;3.88;;;3.58;;
12151;SDS011;6139;51.274;7.128;2023-07-28T05:44:45;3.33;;;3.03;;
12151;SDS011;6139;51.274;7.128;2023-07-28T05:45:46;3.80;;;3.20;;
12151;SDS011;6139;51.274;7.128;2023-07-28T05:46:52;5.22;;;3.33;;
12151;SDS011;6139;51.274;7.128;2023-07-28T05:47:53;4.25;;;3.85;;
12151;SDS011;6139;51.274;7.128;2023-07-28T05:48:55;7.75;;;3.78;;
12151;SDS011;6139;51.274;7.128;2023-07-28T05:49:58;5.35;;;3.67;;
12151;SDS011;6139;51.274;7.128;2023-07-28T05:51:00;4.18;;;3.78;;
12151;SDS011;6139;51.274;7.128;2023-07-28T05:52:01;10.55;;;4.60;;
12151;SDS011;6139;51.274;7.128;2023-07-28T05:53:03;4.97;;;4.45;;
12151;SDS011;6139;51.274;7.128;2023-07-28T05:54:04;5.65;;;4.30;;
12151;SDS011;6139;51.274;7.128;2023-07-28T05:55:07;4.50;;;4.10;;
12151;SDS011;6139;51.274;7.128;2023-07-28T05:56:08;11.95;;;5.00;;
12151;SDS011;6139;51.274;7.128;2023-07-28T05:57:10;6.88;;;4.38;;
12151;SDS011;6139;51.274;7.128;2023-07-28T05:58:12;17.58;;;4.82;;
12151;SDS011;6139;51.274;7.128;2023-07-28T05:59:14;11.25;;;4.20;;
12151;SDS011;6139;51.274;7.128;2023-07-28T06:00:16;5.00;;;4.25;;
12151;SDS011;6139;51.274;7.128;2023-07-28T06:01:17;5.38;;;4.03;;
12151;SDS011;6139;51.274;7.128;2023-07-28T06:02:45;4.05;;;3.67;;
12151;SDS011;6139;51.274;7.128;2023-07-28T06:04:02;3.30;;;3.00;;
12151;SDS011;6139;51.274;7.128;2023-07-28T06:05:09;3.67;;;3.30;;
12151;SDS011;6139;51.274;7.128;2023-07-28T06:06:10;5.50;;;2.72;;
12151;SDS011;6139;51.274;7.128;2023-07-28T06:07:12;3.15;;;2.42;;
12151;SDS011;6139;51.274;7.128;2023-07-28T06:08:14;2.63;;;2.42;;
12151;SDS011;6139;51.274;7.128;2023-07-28T06:09:16;3.35;;;2.92;;
12151;SDS011;6139;51.274;7.128;2023-07-28T06:10:17;2.60;;;2.40;;
12151;SDS011;6139;51.274;7.128;2023-07-28T06:11:19;2.75;;;2.55;;
12151;SDS011;6139;51.274;7.128;2023-07-28T06:12:21;2.80;;;2.50;;
12151;SDS011;6139;51.274;7.128;2023-07-28T06:13:23;3.47;;;2.40;;
12151;SDS011;6139;51.274;7.128;2023-07-28T06:14:24;2.38;;;2.17;;
12151;SDS011;6139;51.274;7.128;2023-07-28T06:15:27;3.40;;;3.10;;
12151;SDS011;6139;51.274;7.128;2023-07-28T06:16:28;2.72;;;2.53;;
12151;SDS011;6139;51.274;7.128;2023-07-28T06:17:30;3.20;;;2.90;;
12151;SDS011;6139;51.274;7.128;2023-07-28T06:18:31;3.08;;;2.78;;
12151;SDS011;6139;51.274;7.128;2023-07-28T06:19:52;2.92;;;2.72;;
12151;SDS011;6139;51.274;7.128;2023-07-28T06:20:55;3.47;;;2.70;;
12151;SDS011;6139;51.274;7.128;2023-07-28T06:21:57;2.63;;;2.42;;
12151;SDS011;6139;51.274;7.128;2023-07-28T06:22:58;4.32;;;3.55;;
12151;SDS011;6139;51.274;7.128;2023-07-28T06:24:02;5.10;;;2.60;;
12151;SDS011;6139;51.274;7.128;2023-07-28T06:25:03;3.38;;;3.08;;
12151;SDS011;6139;51.274;7.128;2023-07-28T06:26:06;3.60;;;3.30;;